Time;durP1;ratioP1;P1;durP2;ratioP2;P2;SDS_P1;SDS_P2;PMS_P1;PMS_P2;Temp;Humidity;BMP_temperature;BMP_pressure;BME280_temperature;BME280_humidity;BME280_pressure;Samples;Min_cycle;Max_cycle;Signal;HPM_P1;HPM_P2
2022/11/19 00:01:56;;;;;;;60.55;35.60;;;6.50;84.40;;;;;;5075121;28;20107;-17
2022/11/19 00:04:22;;;;;;;52.08;31.90;;;6.50;84.40;;;;;;5073842;28;20028;-17
2022/11/19 00:06:49;;;;;;;51.80;32.40;;;6.50;84.40;;;;;;5075096;28;20048;-18
2022/11/19 00:09:16;;;;;;;61.53;35.22;;;6.50;84.50;;;;;;5075384;28;20036;-19
2022/11/19 00:14:26;;;;;;;65.40;38.60;;;6.50;84.50;;;;;;5075039;28;20523;-16
2022/11/19 00:16:52;;;;;;;58.47;34.75;;;6.50;84.60;;;;;;5074535;28;20029;-17
2022/11/19 00:19:18;;;;;;;45.58;28.92;;;6.50;84.60;;;;;;5075025;28;20178;-18
2022/11/19 00:21:45;;;;;;;55.33;33.55;;;6.50;84.70;;;;;;5074709;28;20507;-18
2022/11/19 00:24:11;;;;;;;57.75;33.88;;;6.50;84.70;;;;;;5074922;28;20035;-19
2022/11/19 00:26:37;;;;;;;43.67;25.42;;;6.60;84.80;;;;;;5074542;28;20031;-17
2022/11/19 00:29:03;;;;;;;38.17;23.48;;;6.50;84.90;;;;;;5056410;28;20024;-17
2022/11/19 00:31:30;;;;;;;40.17;25.10;;;6.60;84.70;;;;;;5074701;28;20114;-19
2022/11/19 00:33:56;;;;;;;47.08;27.67;;;6.60;84.70;;;;;;5074374;28;20511;-19
2022/11/19 00:36:22;;;;;;;46.17;27.52;;;6.60;84.70;;;;;;5074607;28;20032;-17
2022/11/19 00:38:49;;;;;;;39.58;24.05;;;6.50;84.60;;;;;;5074178;28;20034;-17
2022/11/19 00:41:14;;;;;;;46.78;27.33;;;6.50;84.60;;;;;;5074178;28;20434;-17
2022/11/19 00:43:46;;;;;;;51.17;30.88;;;6.50;84.70;;;;;;5074323;28;20021;-18
2022/11/19 00:46:18;;;;;;;40.65;24.52;;;6.40;84.70;;;;;;5074306;28;20387;-16
2022/11/19 00:48:44;;;;;;;41.13;23.83;;;6.40;84.70;;;;;;5074293;28;20028;-17
2022/11/19 00:51:11;;;;;;;38.10;23.23;;;6.50;84.70;;;;;;5072548;28;20025;-16
2022/11/19 00:53:37;;;;;;;41.92;23.58;;;6.60;84.90;;;;;;5074246;28;20060;-18
2022/11/19 00:56:06;;;;;;;41.22;24.98;;;6.60;84.80;;;;;;5074262;28;20028;-17
2022/11/19 00:58:32;;;;;;;38.80;22.25;;;6.60;84.80;;;;;;5073776;28;20048;-17
2022/11/19 01:00:59;;;;;;;35.85;21.92;;;6.60;84.80;;;;;;5073997;28;20533;-17
2022/11/19 01:03:25;;;;;;;32.60;19.45;;;6.70;84.70;;;;;;5073804;28;20107;-18
2022/11/19 01:05:54;;;;;;;35.00;20.48;;;6.70;84.70;;;;;;5073788;28;20132;-15
2022/11/19 01:08:20;;;;;;;29.33;17.98;;;6.80;84.60;;;;;;5073679;28;20016;-16
2022/11/19 01:10:47;;;;;;;30.33;18.33;;;6.80;84.60;;;;;;5073496;28;20460;-17
2022/11/19 01:15:58;;;;;;;36.85;21.13;;;6.80;84.90;;;;;;5073723;28;20062;-16
2022/11/19 01:18:25;;;;;;;32.80;19.02;;;6.90;84.90;;;;;;5074107;28;20078;-16
2022/11/19 01:20:51;;;;;;;37.85;20.58;;;6.90;84.90;;;;;;5073020;28;20024;-16
2022/11/19 01:23:17;;;;;;;41.60;21.55;;;6.90;84.70;;;;;;5073803;28;20035;-17
2022/11/19 01:25:43;;;;;;;33.78;18.13;;;6.90;85.10;;;;;;5073837;28;20479;-19
2022/11/19 01:28:09;;;;;;;27.90;16.05;;;7.00;84.90;;;;;;5073408;28;20047;-18
2022/11/19 01:30:40;;;;;;;36.28;20.27;;;7.00;84.80;;;;;;5072030;28;20029;-18
2022/11/19 01:33:07;;;;;;;31.65;16.52;;;7.00;84.70;;;;;;5073611;28;20051;-17
2022/11/19 01:35:33;;;;;;;30.73;16.67;;;7.00;84.70;;;;;;5073456;28;20082;-18
2022/11/19 01:38:01;;;;;;;20.02;12.13;;;7.10;84.70;;;;;;5072760;28;20032;-18
2022/11/19 01:40:28;;;;;;;25.55;14.45;;;7.10;84.60;;;;;;5073298;28;20551;-18
2022/11/19 01:42:54;;;;;;;21.48;13.02;;;7.10;84.50;;;;;;5073211;28;20047;-17
2022/11/19 01:45:40;;;;;;;18.90;11.88;;;7.10;84.40;;;;;;5073045;28;20033;-17
2022/11/19 01:48:31;;;;;;;24.88;13.63;;;7.10;84.40;;;;;;5073443;28;20020;-17
2022/11/19 01:51:13;;;;;;;25.23;14.10;;;7.10;84.50;;;;;;5073139;28;20498;-17
2022/11/19 01:53:42;;;;;;;27.30;14.90;;;7.10;84.50;;;;;;5073794;28;20086;-18
2022/11/19 01:56:09;;;;;;;26.23;14.57;;;7.00;84.50;;;;;;5073416;28;20028;-17
2022/11/19 01:58:39;;;;;;;24.65;13.70;;;7.00;84.40;;;;;;5073042;28;20057;-14
2022/11/19 02:01:08;;;;;;;28.52;15.35;;;7.00;84.40;;;;;;5072906;28;20029;-16
2022/11/19 02:03:35;;;;;;;23.40;13.90;;;6.90;84.40;;;;;;5071833;28;20029;-16
2022/11/19 02:06:02;;;;;;;28.05;15.15;;;6.90;84.40;;;;;;5073149;28;20487;-19
2022/11/19 02:08:53;;;;;;;24.55;14.88;;;6.90;84.40;;;;;;5072969;28;20487;-15
2022/11/19 02:11:30;;;;;;;23.50;13.88;;;6.90;84.50;;;;;;5073266;28;20033;-18
2022/11/19 02:13:59;;;;;;;23.75;13.45;;;6.90;84.50;;;;;;5073140;28;20032;-15
2022/11/19 02:16:51;;;;;;;23.13;13.45;;;6.80;84.60;;;;;;5072935;28;20452;-17
2022/11/19 02:19:50;;;;;;;21.08;12.25;;;6.90;84.60;;;;;;5072833;28;20078;-18
2022/11/19 02:22:44;;;;;;;18.98;11.68;;;6.90;84.60;;;;;;5072866;28;20032;-18
2022/11/19 02:25:33;;;;;;;23.17;12.20;;;6.90;84.60;;;;;;5072694;28;20066;-17
2022/11/19 02:28:14;;;;;;;29.40;15.32;;;6.90;84.70;;;;;;5073180;28;20115;-19
2022/11/19 02:30:49;;;;;;;18.50;11.73;;;6.90;84.80;;;;;;5072991;28;20040;-18
2022/11/19 02:33:41;;;;;;;21.27;12.20;;;6.90;84.70;;;;;;5073025;28;20013;-19
2022/11/19 02:36:21;;;;;;;17.75;10.82;;;6.80;84.70;;;;;;5072791;28;20035;-16
2022/11/19 02:39:05;;;;;;;20.90;12.90;;;6.80;84.60;;;;;;5072764;28;20071;-16
2022/11/19 02:41:55;;;;;;;26.25;15.32;;;6.90;84.70;;;;;;5072694;28;20473;-19
2022/11/19 02:47:18;;;;;;;19.77;11.60;;;6.90;84.90;;;;;;5072502;28;20391;-17
2022/11/19 02:49:45;;;;;;;17.65;9.70;;;6.90;84.80;;;;;;5075367;28;20067;-18
2022/11/19 02:52:13;;;;;;;16.00;9.68;;;6.90;84.80;;;;;;5076259;28;20043;-17
2022/11/19 02:54:40;;;;;;;18.80;10.23;;;6.90;84.70;;;;;;5076598;28;20025;-18
2022/11/19 02:57:07;;;;;;;15.60;8.50;;;6.80;84.70;;;;;;5076424;28;20476;-18
2022/11/19 03:05:38;;;;;;;16.58;9.00;;;6.80;84.80;;;;;;5076461;28;20150;-18
2022/11/19 03:08:05;;;;;;;18.77;10.80;;;6.90;84.80;;;;;;5076383;28;20074;-18
2022/11/19 03:10:46;;;;;;;17.80;9.68;;;6.90;84.80;;;;;;5075955;28;20036;-17
2022/11/19 03:19:04;;;;;;;19.15;10.65;;;6.80;84.90;;;;;;5076301;28;20036;-19
2022/11/19 03:21:37;;;;;;;19.83;10.57;;;6.80;84.80;;;;;;5075870;28;20087;-18
2022/11/19 03:24:19;;;;;;;18.48;11.57;;;6.90;84.80;;;;;;5075799;28;20089;-18
2022/11/19 03:26:59;;;;;;;19.23;11.60;;;6.80;84.80;;;;;;5075742;28;20362;-18
2022/11/19 03:29:28;;;;;;;16.98;9.43;;;6.90;84.90;;;;;;5076004;28;20013;-17
2022/11/19 03:32:02;;;;;;;12.25;8.15;;;6.90;84.90;;;;;;5075716;28;20037;-18
2022/11/19 03:34:30;;;;;;;16.77;9.65;;;6.80;84.70;;;;;;5075622;28;20508;-18
2022/11/19 03:37:00;;;;;;;19.27;11.07;;;6.80;84.80;;;;;;5075680;28;20063;-16
2022/11/19 03:39:26;;;;;;;14.88;7.95;;;6.80;84.80;;;;;;5075970;28;20361;-19
2022/11/19 03:41:53;;;;;;;18.13;10.10;;;6.80;84.80;;;;;;5075464;28;20029;-18
2022/11/19 03:44:28;;;;;;;18.08;10.68;;;6.80;84.70;;;;;;5075711;28;20388;-17
2022/11/19 03:47:15;;;;;;;19.33;10.73;;;6.80;84.90;;;;;;5075294;28;20031;-16
2022/11/19 03:49:45;;;;;;;16.42;9.13;;;6.80;84.90;;;;;;5075426;28;20549;-18
2022/11/19 03:52:18;;;;;;;17.05;10.52;;;6.80;84.80;;;;;;5075258;28;20491;-18
2022/11/19 03:54:44;;;;;;;15.63;8.52;;;6.80;84.70;;;;;;5075425;28;20021;-19
2022/11/19 03:57:20;;;;;;;15.85;8.35;;;6.80;84.80;;;;;;5074994;28;20104;-19
2022/11/19 03:59:46;;;;;;;12.32;7.00;;;6.80;84.70;;;;;;5074556;28;20044;-18
2022/11/19 04:02:13;;;;;;;13.77;8.07;;;6.80;84.70;;;;;;5075318;28;20494;-17
2022/11/19 04:04:39;;;;;;;14.68;8.77;;;6.80;84.70;;;;;;5075236;28;20024;-16
2022/11/19 04:07:11;;;;;;;15.00;9.15;;;6.70;84.60;;;;;;5074753;28;20032;-18
2022/11/19 04:09:39;;;;;;;15.60;8.45;;;6.70;84.60;;;;;;5074931;28;20031;-17
2022/11/19 04:12:07;;;;;;;12.77;7.88;;;6.60;84.50;;;;;;5075400;28;20070;-17
2022/11/19 04:14:33;;;;;;;12.82;7.82;;;6.60;84.50;;;;;;5075170;28;20017;-16
2022/11/19 04:16:59;;;;;;;14.98;8.50;;;6.50;84.50;;;;;;5074844;28;20035;-18
2022/11/19 04:19:25;;;;;;;10.35;6.60;;;6.50;84.60;;;;;;5074985;28;20021;-18
2022/11/19 04:21:51;;;;;;;14.27;8.60;;;6.50;84.70;;;;;;5074700;28;20375;-18
2022/11/19 04:24:17;;;;;;;12.30;6.88;;;6.50;84.80;;;;;;5073393;28;20063;-17
2022/11/19 04:26:43;;;;;;;12.18;6.90;;;6.50;84.80;;;;;;5075165;28;20419;-18
2022/11/19 04:29:09;;;;;;;11.77;6.90;;;6.40;84.70;;;;;;5072953;28;20190;-19
2022/11/19 04:31:35;;;;;;;15.52;8.90;;;6.40;84.70;;;;;;5074336;28;20063;-18
2022/11/19 04:34:01;;;;;;;15.10;8.02;;;6.40;84.70;;;;;;5074727;28;20028;-18
2022/11/19 04:36:27;;;;;;;14.15;7.05;;;6.40;84.80;;;;;;5074640;28;20375;-18
2022/11/19 04:38:53;;;;;;;12.52;7.50;;;6.40;84.90;;;;;;5074474;28;20540;-18
2022/11/19 04:41:19;;;;;;;11.82;6.65;;;6.30;84.80;;;;;;5074651;28;20029;-18
2022/11/19 04:43:45;;;;;;;15.68;9.38;;;6.30;84.70;;;;;;5074491;28;20549;-17
2022/11/19 04:46:11;;;;;;;12.50;7.55;;;6.30;84.70;;;;;;5074504;28;20066;-18
2022/11/19 04:48:37;;;;;;;14.45;7.95;;;6.30;84.80;;;;;;5074135;28;20028;-18
2022/11/19 04:51:03;;;;;;;14.95;7.68;;;6.30;84.80;;;;;;5073463;28;20039;-18
2022/11/19 04:53:29;;;;;;;11.05;6.68;;;6.30;84.80;;;;;;5074169;28;20055;-19
2022/11/19 04:55:55;;;;;;;12.93;7.50;;;6.20;84.90;;;;;;5074083;28;20025;-19
2022/11/19 04:58:21;;;;;;;11.80;6.90;;;6.30;84.90;;;;;;5073928;28;20102;-18
2022/11/19 05:00:47;;;;;;;11.10;6.25;;;6.30;84.90;;;;;;5072684;28;20511;-18
2022/11/19 05:03:13;;;;;;;13.95;7.35;;;6.30;84.90;;;;;;5072607;28;20025;-19
2022/11/19 05:05:39;;;;;;;12.65;7.05;;;6.30;84.80;;;;;;5074432;28;20111;-17
2022/11/19 05:08:05;;;;;;;10.52;6.40;;;6.30;84.80;;;;;;5072565;28;20028;-18
2022/11/19 05:10:31;;;;;;;10.15;5.93;;;6.30;84.80;;;;;;5073517;28;20047;-17
2022/11/19 05:12:57;;;;;;;12.35;6.57;;;6.30;84.80;;;;;;5072708;28;20032;-18
2022/11/19 05:15:23;;;;;;;11.63;6.82;;;6.20;84.70;;;;;;5072246;28;20020;-17
2022/11/19 05:17:49;;;;;;;12.02;6.90;;;6.20;84.60;;;;;;5073995;28;20059;-18
2022/11/19 05:20:15;;;;;;;15.70;8.38;;;6.10;84.60;;;;;;5073821;28;20032;-18
2022/11/19 05:22:41;;;;;;;15.52;8.43;;;6.10;84.60;;;;;;5073536;28;20016;-17
2022/11/19 05:25:08;;;;;;;14.88;8.25;;;6.00;84.70;;;;;;5073220;28;20032;-17
2022/11/19 05:27:34;;;;;;;10.70;6.65;;;6.00;84.70;;;;;;5073443;28;20059;-17
2022/11/19 05:30:00;;;;;;;9.55;5.75;;;6.00;84.90;;;;;;5073344;28;20034;-16
2022/11/19 05:32:26;;;;;;;10.60;6.32;;;6.00;84.90;;;;;;5073458;28;20119;-16
2022/11/19 05:34:52;;;;;;;14.30;8.48;;;6.00;85.00;;;;;;5073242;28;20056;-19
2022/11/19 05:37:18;;;;;;;10.52;6.07;;;6.00;85.10;;;;;;5073324;28;20028;-18
2022/11/19 05:39:43;;;;;;;15.10;7.43;;;6.00;85.00;;;;;;5073497;28;20105;-18
2022/11/19 05:42:09;;;;;;;11.70;6.35;;;6.10;85.10;;;;;;5073504;28;20031;-18
2022/11/19 05:44:35;;;;;;;13.05;6.85;;;6.00;85.00;;;;;;5073070;28;20033;-16
2022/11/19 05:47:01;;;;;;;13.98;7.70;;;6.10;84.80;;;;;;5073391;28;20025;-19
2022/11/19 05:49:27;;;;;;;14.55;8.38;;;6.10;84.70;;;;;;5073510;28;20024;-17
2022/11/19 05:51:53;;;;;;;14.13;7.88;;;6.00;84.70;;;;;;5073329;28;20123;-17
2022/11/19 05:54:19;;;;;;;11.07;7.13;;;6.00;84.80;;;;;;5073505;28;20476;-19
2022/11/19 05:56:45;;;;;;;11.55;6.43;;;6.00;84.80;;;;;;5073111;28;20484;-19
2022/11/19 05:59:11;;;;;;;9.32;5.60;;;6.00;84.90;;;;;;5072688;28;20059;-19
2022/11/19 06:01:37;;;;;;;10.82;6.47;;;6.00;84.90;;;;;;5073047;28;20392;-18
2022/11/19 06:04:03;;;;;;;10.70;6.40;;;6.00;84.80;;;;;;5073058;28;20025;-18
2022/11/19 06:06:29;;;;;;;9.70;6.25;;;5.90;84.80;;;;;;5073467;28;20060;-19
2022/11/19 06:08:54;;;;;;;11.63;6.63;;;5.90;84.80;;;;;;5073107;28;20029;-18
2022/11/19 06:14:21;;;;;;;14.13;6.95;;;5.90;84.80;;;;;;5070697;28;20068;-17
2022/11/19 06:16:50;;;;;;;10.98;6.50;;;5.80;84.80;;;;;;5070608;28;20182;-18
2022/11/19 06:19:17;;;;;;;12.18;6.40;;;5.80;84.80;;;;;;5071151;28;20023;-17
2022/11/19 06:21:43;;;;;;;13.35;7.28;;;5.80;84.80;;;;;;5070808;28;20025;-18
2022/11/19 06:24:09;;;;;;;12.48;7.25;;;5.70;84.80;;;;;;5073857;28;20024;-19
2022/11/19 06:26:36;;;;;;;15.93;10.52;;;5.70;84.90;;;;;;5058085;28;20103;-16
2022/11/19 06:29:03;;;;;;;18.67;11.13;;;5.70;84.90;;;;;;5074476;28;20025;-18
2022/11/19 06:31:29;;;;;;;16.80;8.73;;;5.70;85.10;;;;;;5074716;28;20041;-18
2022/11/19 06:33:55;;;;;;;13.43;7.95;;;5.70;85.00;;;;;;5074677;28;20028;-17
2022/11/19 06:36:21;;;;;;;13.70;8.38;;;5.70;85.20;;;;;;5074627;28;20043;-18
2022/11/19 06:38:48;;;;;;;19.20;9.95;;;5.70;85.40;;;;;;5074547;28;20029;-19
2022/11/19 06:41:14;;;;;;;16.48;9.27;;;5.70;85.40;;;;;;5074818;28;20110;-18
2022/11/19 06:43:40;;;;;;;15.13;8.55;;;5.80;85.50;;;;;;5074938;28;20048;-18
2022/11/19 06:46:06;;;;;;;15.75;9.15;;;5.80;85.40;;;;;;5074703;28;20028;-16
2022/11/19 06:48:32;;;;;;;17.17;10.13;;;5.80;85.40;;;;;;5074461;28;20408;-18
2022/11/19 06:51:00;;;;;;;16.45;9.00;;;5.80;85.60;;;;;;5076009;28;20507;-19
2022/11/19 06:53:27;;;;;;;17.58;10.10;;;5.80;85.40;;;;;;5076629;28;20035;-17
2022/11/19 06:56:00;;;;;;;17.13;9.68;;;5.80;85.20;;;;;;5076344;28;20078;-19
2022/11/19 06:58:28;;;;;;;17.98;10.75;;;5.90;85.50;;;;;;5076202;28;20094;-17
2022/11/19 07:00:54;;;;;;;14.63;8.73;;;5.90;85.80;;;;;;5076192;28;20101;-16
2022/11/19 07:03:21;;;;;;;17.20;9.68;;;5.90;85.80;;;;;;5076490;28;20111;-15
2022/11/19 07:05:48;;;;;;;23.00;12.98;;;5.90;85.90;;;;;;5076446;28;20078;-17
2022/11/19 07:08:15;;;;;;;18.33;10.65;;;6.00;85.80;;;;;;5076279;28;20017;-16
2022/11/19 07:10:41;;;;;;;18.63;11.35;;;6.00;85.90;;;;;;5076072;28;20064;-17
2022/11/19 07:13:07;;;;;;;18.88;11.13;;;6.00;85.90;;;;;;5075847;28;20508;-17
2022/11/19 07:15:33;;;;;;;19.30;11.07;;;6.10;86.20;;;;;;5075711;28;20067;-16
2022/11/19 07:18:00;;;;;;;20.00;10.40;;;6.20;86.20;;;;;;5076755;28;20044;-16
2022/11/19 07:20:27;;;;;;;19.35;10.02;;;6.40;86.60;;;;;;5076094;28;20032;-18
2022/11/19 07:22:53;;;;;;;16.23;9.48;;;6.40;86.70;;;;;;5075696;28;20029;-18
2022/11/19 07:25:19;;;;;;;19.35;10.48;;;6.40;86.70;;;;;;5075725;28;20024;-18
2022/11/19 07:27:46;;;;;;;18.33;10.20;;;6.40;86.60;;;;;;5075673;28;20032;-15
2022/11/19 07:30:15;;;;;;;16.85;9.93;;;6.50;86.60;;;;;;5075528;28;20500;-19
2022/11/19 07:32:42;;;;;;;19.15;10.05;;;6.50;86.50;;;;;;5075582;28;20020;-18
2022/11/19 07:35:08;;;;;;;17.27;10.07;;;6.50;86.60;;;;;;5073380;28;20067;-15
2022/11/19 07:37:35;;;;;;;16.48;10.18;;;6.60;86.40;;;;;;5076020;28;20016;-17
2022/11/19 07:40:03;;;;;;;17.90;11.32;;;6.60;86.30;;;;;;5075815;28;20035;-17
2022/11/19 07:45:13;;;;;;;;;;;6.70;85.90;;;;;;5075822;28;20086;-16
2022/11/19 07:47:39;;;;;;;16.30;10.48;;;6.80;86.00;;;;;;5075668;28;19904;-16
2022/11/19 07:50:06;;;;;;;17.58;9.75;;;6.80;86.10;;;;;;5075481;28;20028;-16
2022/11/19 07:52:31;;;;;;;16.83;8.98;;;6.90;85.90;;;;;;5075032;28;20418;-17
2022/11/19 07:54:57;;;;;;;17.83;10.05;;;6.90;85.90;;;;;;5073922;28;20024;-16
2022/11/19 07:57:23;;;;;;;19.02;10.60;;;7.00;85.80;;;;;;5075139;28;20035;-17
2022/11/19 07:59:49;;;;;;;17.55;8.57;;;7.10;85.80;;;;;;5074917;28;20059;-18
2022/11/19 08:02:15;;;;;;;16.23;7.63;;;7.20;85.40;;;;;;5075616;28;20091;-17
2022/11/19 08:04:41;;;;;;;13.00;8.13;;;7.20;85.00;;;;;;5074999;28;20027;-17
2022/11/19 08:07:07;;;;;;;12.02;7.72;;;7.30;84.70;;;;;;5074873;28;20032;-18
2022/11/19 08:09:33;;;;;;;14.50;7.70;;;7.30;84.50;;;;;;5073679;28;20029;-18
2022/11/19 08:11:59;;;;;;;16.98;9.27;;;7.40;84.30;;;;;;5074808;28;20115;-18
2022/11/19 08:14:25;;;;;;;14.55;9.00;;;7.40;84.30;;;;;;5074688;28;20025;-17
2022/11/19 08:19:35;;;;;;;14.77;9.35;;;7.40;84.40;;;;;;5075109;28;20031;-17
2022/11/19 08:22:01;;;;;;;15.25;9.27;;;7.50;84.90;;;;;;5075046;28;20020;-17
2022/11/19 08:24:27;;;;;;;17.45;10.95;;;7.60;85.20;;;;;;5074765;28;20068;-18
2022/11/19 08:26:52;;;;;;;19.63;10.80;;;7.70;85.60;;;;;;5074417;28;20078;-16
2022/11/19 08:29:20;;;;;;;19.55;10.40;;;7.80;85.30;;;;;;5074593;28;20020;-15
2022/11/19 08:31:48;;;;;;;17.92;9.88;;;7.90;84.90;;;;;;5074436;28;20430;-15
2022/11/19 08:34:15;;;;;;;27.45;14.35;;;7.90;84.70;;;;;;5074613;28;20056;-17
2022/11/19 08:36:40;;;;;;;20.02;11.23;;;8.10;84.60;;;;;;5074564;28;20033;-16
2022/11/19 08:39:07;;;;;;;17.00;10.57;;;8.20;84.40;;;;;;5074191;28;20537;-17
2022/11/19 08:44:17;;;;;;;20.52;12.02;;;8.20;84.20;;;;;;5074526;28;20035;-17
2022/11/19 08:46:43;;;;;;;16.10;8.90;;;8.30;84.20;;;;;;5074052;28;20024;-18
2022/11/19 08:49:10;;;;;;;17.83;9.70;;;8.40;84.00;;;;;;5074343;28;20052;-16
2022/11/19 08:51:36;;;;;;;20.52;11.63;;;8.40;84.10;;;;;;5074055;28;20392;-17
2022/11/19 08:54:03;;;;;;;17.83;10.68;;;8.50;84.10;;;;;;5074461;28;20028;-18
2022/11/19 08:56:29;;;;;;;19.23;10.38;;;8.60;84.00;;;;;;5074647;28;20024;-17
2022/11/19 08:58:55;;;;;;;18.55;10.32;;;8.60;83.80;;;;;;5073737;28;20048;-17
2022/11/19 09:01:21;;;;;;;18.20;10.20;;;8.70;83.60;;;;;;5074099;28;20472;-18
2022/11/19 09:03:46;;;;;;;16.20;10.23;;;8.80;83.70;;;;;;5074174;28;20028;-16
2022/11/19 09:06:12;;;;;;;19.02;11.27;;;8.90;83.70;;;;;;5073828;28;20404;-17
2022/11/19 09:08:39;;;;;;;17.50;10.55;;;9.20;83.60;;;;;;5073752;28;20024;-17
2022/11/19 09:11:09;;;;;;;20.27;11.43;;;9.40;83.10;;;;;;5073520;28;20032;-17
2022/11/19 09:13:35;;;;;;;15.95;9.18;;;9.60;83.40;;;;;;5073732;28;20123;-17
2022/11/19 09:16:02;;;;;;;17.33;10.07;;;9.80;83.40;;;;;;5073761;28;20046;-16
2022/11/19 09:18:29;;;;;;;13.63;8.27;;;10.00;83.10;;;;;;5073856;28;20450;-16
2022/11/19 09:20:56;;;;;;;16.75;10.48;;;10.20;82.00;;;;;;5073640;28;20020;-16
2022/11/19 09:23:23;;;;;;;18.05;10.45;;;10.30;81.80;;;;;;5073579;28;20028;-14
2022/11/19 09:26:01;;;;;;;16.67;9.45;;;10.40;81.70;;;;;;5073498;28;20565;-17
2022/11/19 09:28:28;;;;;;;16.08;9.32;;;10.40;81.60;;;;;;5073807;28;20028;-16
2022/11/19 09:30:58;;;;;;;12.98;7.88;;;10.40;81.80;;;;;;5073209;28;20028;-18
2022/11/19 09:33:25;;;;;;;20.90;12.10;;;10.50;82.00;;;;;;5073406;28;20039;-18
2022/11/19 09:35:52;;;;;;;18.42;10.70;;;10.60;81.70;;;;;;5073369;28;20036;-18
2022/11/19 09:38:19;;;;;;;17.83;10.70;;;10.70;81.70;;;;;;5073614;28;20119;-18
2022/11/19 09:40:48;;;;;;;15.75;9.02;;;10.80;81.50;;;;;;5073590;28;20090;-19
2022/11/19 09:43:34;;;;;;;17.42;10.02;;;11.00;81.70;;;;;;5073516;28;20063;-17
2022/11/19 09:46:27;;;;;;;15.70;8.43;;;11.20;81.70;;;;;;5072832;28;20044;-15
2022/11/19 09:48:58;;;;;;;14.32;9.13;;;11.30;81.20;;;;;;5072967;28;20427;-18
2022/11/19 09:51:29;;;;;;;12.77;7.63;;;11.40;80.40;;;;;;5073384;28;20044;-16
2022/11/19 09:54:06;;;;;;;10.90;7.45;;;11.40;80.50;;;;;;5073378;28;20017;-18
2022/11/19 09:56:53;;;;;;;12.57;8.00;;;11.40;80.20;;;;;;5073910;28;20036;-19
2022/11/19 09:59:24;;;;;;;12.68;6.75;;;11.40;80.30;;;;;;5072462;28;20048;-17
2022/11/19 10:01:51;;;;;;;10.98;6.68;;;11.50;80.70;;;;;;5073452;28;20033;-19
2022/11/19 10:04:23;;;;;;;12.63;7.35;;;11.70;80.60;;;;;;5073022;28;20025;-16
2022/11/19 10:07:22;;;;;;;12.38;7.55;;;11.90;80.20;;;;;;5073237;28;20074;-18
2022/11/19 10:10:19;;;;;;;11.48;7.03;;;12.20;79.90;;;;;;5050879;28;20147;-17
2022/11/19 10:13:10;;;;;;;12.15;6.85;;;12.60;79.10;;;;;;5035377;28;20040;-17
2022/11/19 10:16:15;;;;;;;11.95;6.95;;;12.90;78.70;;;;;;5050817;28;20419;-18
2022/11/19 10:19:13;;;;;;;;;;;13.20;76.20;;;;;;5051244;28;20381;-18
2022/11/19 10:22:02;;;;;;;12.27;7.15;;;13.30;74.50;;;;;;4972217;28;19906;-17
2022/11/19 10:24:42;;;;;;;14.32;7.50;;;13.30;74.10;;;;;;4972251;28;20031;-16
2022/11/19 10:27:25;;;;;;;11.98;7.68;;;13.40;75.30;;;;;;4971921;28;20034;-18
2022/11/19 10:29:55;;;;;;;13.07;7.55;;;13.40;74.20;;;;;;4972553;28;20114;-18
2022/11/19 10:32:39;;;;;;;13.32;8.25;;;13.40;74.40;;;;;;4972051;28;20047;-17
2022/11/19 10:35:18;;;;;;;14.77;9.20;;;13.40;74.60;;;;;;4971944;28;20078;-18
2022/11/19 10:37:55;;;;;;;17.33;12.60;;;13.40;73.60;;;;;;4971923;28;21089;-16
2022/11/19 10:40:24;;;;;;;15.02;10.18;;;13.50;74.30;;;;;;4972827;28;20053;-16
2022/11/19 10:43:07;;;;;;;22.90;17.30;;;13.50;74.50;;;;;;4971750;28;20541;-15
2022/11/19 10:45:33;;;;;;;24.02;17.50;;;13.60;73.60;;;;;;4976326;28;20031;-16
2022/11/19 10:48:19;;;;;;;19.63;13.25;;;13.70;73.20;;;;;;5010988;28;20468;-16
2022/11/19 10:50:46;;;;;;;16.20;10.45;;;13.80;74.20;;;;;;5011036;28;20054;-18
2022/11/19 10:53:44;;;;;;;15.68;9.02;;;13.90;73.90;;;;;;5010714;28;20030;-16
2022/11/19 10:56:20;;;;;;;14.40;8.05;;;13.90;74.00;;;;;;5014040;28;20109;-16
2022/11/19 10:58:47;;;;;;;12.20;7.45;;;13.90;74.10;;;;;;5072675;28;20046;-15
2022/11/19 11:01:35;;;;;;;11.77;7.13;;;13.90;74.20;;;;;;5072580;28;20484;-17
2022/11/19 11:07:45;;;;;;;14.77;8.40;;;14.00;73.10;;;;;;5072765;28;20376;-17
2022/11/19 11:10:44;;;;;;;12.05;8.18;;;14.00;71.50;;;;;;5073652;28;20033;-16
2022/11/19 11:16:12;;;;;;;15.80;8.68;;;14.20;73.10;;;;;;5054104;28;20396;-18
2022/11/19 11:18:39;;;;;;;11.32;7.40;;;14.20;73.70;;;;;;5053968;28;20476;-16
2022/11/19 11:21:10;;;;;;;13.63;8.50;;;14.30;73.70;;;;;;5054140;28;20024;-15
2022/11/19 11:23:50;;;;;;;15.05;8.10;;;14.40;72.80;;;;;;5054354;28;20483;-18
2022/11/19 11:26:20;;;;;;;14.85;7.80;;;14.40;72.80;;;;;;5053785;28;20029;-17
2022/11/19 11:28:55;;;;;;;16.73;7.85;;;14.50;72.40;;;;;;5053630;28;20028;-15
2022/11/19 11:31:36;;;;;;;15.15;8.90;;;14.60;72.10;;;;;;5053502;28;20048;-16
2022/11/19 11:34:03;;;;;;;15.15;8.88;;;14.60;71.20;;;;;;5053639;28;20045;-15
2022/11/19 11:36:33;;;;;;;14.05;8.63;;;14.70;70.50;;;;;;5053545;28;20547;-16
2022/11/19 11:39:01;;;;;;;15.25;8.65;;;14.70;68.50;;;;;;5053392;28;20544;-15
2022/11/19 11:41:38;;;;;;;14.35;8.38;;;14.70;67.80;;;;;;5053457;28;20021;-16
2022/11/19 11:44:26;;;;;;;16.75;8.50;;;14.70;68.30;;;;;;5053899;28;20500;-16
2022/11/19 11:46:56;;;;;;;15.13;8.55;;;14.70;68.80;;;;;;5053259;28;20480;-18
2022/11/19 11:49:31;;;;;;;12.98;8.35;;;14.80;67.90;;;;;;5052078;28;20036;-17
2022/11/19 11:52:21;;;;;;;13.60;8.10;;;14.70;68.30;;;;;;5075580;28;20153;-17
2022/11/19 11:55:03;;;;;;;12.43;7.70;;;14.80;68.20;;;;;;5075068;28;20028;-17
2022/11/19 11:57:49;;;;;;;13.05;7.85;;;14.80;67.40;;;;;;5075476;28;20048;-17
2022/11/19 12:00:38;;;;;;;14.85;8.63;;;14.90;67.70;;;;;;5073905;28;20051;-15
2022/11/19 12:03:12;;;;;;;15.05;8.63;;;14.90;65.10;;;;;;5073755;28;20060;-16
2022/11/19 12:05:53;;;;;;;14.88;7.70;;;15.10;66.90;;;;;;5075917;28;20364;-16
2022/11/19 12:08:55;;;;;;;12.85;7.90;;;15.10;65.50;;;;;;5075209;28;20075;-13
2022/11/19 12:11:56;;;;;;;15.93;7.90;;;15.20;64.50;;;;;;5075276;28;20040;-15
2022/11/19 12:14:55;;;;;;;13.43;8.07;;;15.30;63.30;;;;;;5075146;28;20032;-18
2022/11/19 12:17:44;;;;;;;13.32;7.40;;;15.30;62.20;;;;;;5075121;28;20028;-15
2022/11/19 12:20:16;;;;;;;13.05;7.55;;;15.10;62.50;;;;;;5074840;28;20368;-16
2022/11/19 12:22:57;;;;;;;12.45;7.85;;;15.10;63.20;;;;;;5074671;28;20044;-16
2022/11/19 12:25:36;;;;;;;13.68;8.15;;;15.20;63.90;;;;;;5075263;28;20032;-16
2022/11/19 12:28:23;;;;;;;12.80;7.50;;;15.20;63.00;;;;;;5074710;28;20040;-17
2022/11/19 12:30:58;;;;;;;11.20;7.22;;;15.20;63.50;;;;;;5073138;28;20029;-16
2022/11/19 12:33:32;;;;;;;11.70;7.15;;;15.20;64.60;;;;;;5074806;28;20068;-15
2022/11/19 12:36:06;;;;;;;9.65;6.63;;;15.20;64.50;;;;;;5074825;28;20033;-16
2022/11/19 12:38:45;;;;;;;11.55;6.35;;;15.20;64.80;;;;;;5074622;28;20492;-16
2022/11/19 12:41:38;;;;;;;12.13;7.22;;;15.00;62.80;;;;;;5074474;28;20035;-16
2022/11/19 12:44:38;;;;;;;11.50;6.78;;;15.00;63.20;;;;;;5074339;28;20037;-15
2022/11/19 12:47:31;;;;;;;10.82;6.45;;;14.90;63.40;;;;;;5063679;28;20025;-16
2022/11/19 12:50:10;;;;;;;11.20;6.13;;;14.80;64.10;;;;;;5074582;28;20020;-16
2022/11/19 12:53:03;;;;;;;9.10;5.30;;;14.80;63.90;;;;;;5074570;28;20131;-16
2022/11/19 12:55:47;;;;;;;12.13;6.80;;;14.90;65.20;;;;;;5074356;28;20032;-16
2022/11/19 12:58:24;;;;;;;10.95;6.70;;;14.80;64.40;;;;;;5074083;28;20040;-16
2022/11/19 13:00:57;;;;;;;9.48;6.43;;;14.80;64.20;;;;;;5074094;28;20025;-16
2022/11/19 13:03:31;;;;;;;10.07;6.50;;;14.70;64.00;;;;;;5074691;28;20626;-16
2022/11/19 13:06:01;;;;;;;14.63;8.90;;;14.60;64.00;;;;;;5073975;28;20040;-16
2022/11/19 13:08:46;;;;;;;10.77;6.93;;;14.60;64.50;;;;;;5074160;28;20051;-16
2022/11/19 13:11:24;;;;;;;10.57;6.32;;;14.60;65.70;;;;;;5073791;28;20040;-18
2022/11/19 13:14:00;;;;;;;11.00;7.45;;;14.60;65.50;;;;;;5073746;28;20032;-16
2022/11/19 13:16:29;;;;;;;13.35;8.48;;;14.60;63.80;;;;;;5073884;28;20025;-15
2022/11/19 13:19:25;;;;;;;11.43;7.05;;;14.60;63.50;;;;;;5073722;28;20033;-16
2022/11/19 13:22:17;;;;;;;11.50;7.50;;;14.60;64.80;;;;;;5073252;28;20035;-15
2022/11/19 13:24:58;;;;;;;13.50;9.65;;;14.60;63.70;;;;;;5073894;28;20035;-16
2022/11/19 13:27:28;;;;;;;17.90;11.77;;;14.50;64.30;;;;;;5073583;28;20484;-16
2022/11/19 13:30:01;;;;;;;12.82;9.70;;;14.50;64.40;;;;;;5073669;28;20032;-16
2022/11/19 13:33:02;;;;;;;14.50;10.50;;;14.50;65.40;;;;;;5072707;28;20567;-17
2022/11/19 13:35:46;;;;;;;14.25;9.45;;;14.50;64.90;;;;;;5073359;28;20036;-16
2022/11/19 13:38:36;;;;;;;10.27;6.40;;;14.50;64.50;;;;;;5073427;28;20031;-17
2022/11/19 13:41:15;;;;;;;9.35;5.30;;;14.60;65.50;;;;;;5073199;28;20032;-17
2022/11/19 13:46:34;;;;;;;9.13;5.60;;;14.50;65.90;;;;;;5073600;28;20038;-15